sensor_id;sensor_type;location;lat;lon;timestamp;P1;durP1;ratioP1;P2;durP2;ratioP2
42134;SDS011;28312;43.460;11.810;2023-01-23T00:00:56;0.43;;;0.40;;
42134;SDS011;28312;43.460;11.810;2023-01-23T00:05:00;0.40;;;0.40;;
42134;SDS011;28312;43.460;11.810;2023-01-23T00:09:03;0.30;;;0.30;;
42134;SDS011;28312;43.460;11.810;2023-01-23T00:13:07;0.40;;;0.40;;
42134;SDS011;28312;43.460;11.810;2023-01-23T00:17:10;0.22;;;0.22;;
42134;SDS011;28312;43.460;11.810;2023-01-23T00:21:14;0.30;;;0.30;;
42134;SDS011;28312;43.460;11.810;2023-01-23T00:25:20;0.30;;;0.30;;
42134;SDS011;28312;43.460;11.810;2023-01-23T00:29:23;0.50;;;0.50;;
42134;SDS011;28312;43.460;11.810;2023-01-23T00:33:26;0.38;;;0.38;;
42134;SDS011;28312;43.460;11.810;2023-01-23T00:37:30;0.38;;;0.38;;
42134;SDS011;28312;43.460;11.810;2023-01-23T00:41:33;0.30;;;0.30;;
42134;SDS011;28312;43.460;11.810;2023-01-23T00:45:39;0.30;;;0.30;;
42134;SDS011;28312;43.460;11.810;2023-01-23T00:49:43;0.20;;;0.20;;
42134;SDS011;28312;43.460;11.810;2023-01-23T00:53:46;0.30;;;0.30;;
42134;SDS011;28312;43.460;11.810;2023-01-23T00:57:50;0.30;;;0.30;;
42134;SDS011;28312;43.460;11.810;2023-01-23T01:01:53;0.30;;;0.30;;
42134;SDS011;28312;43.460;11.810;2023-01-23T01:05:58;0.40;;;0.40;;
42134;SDS011;28312;43.460;11.810;2023-01-23T01:10:02;0.63;;;0.32;;
42134;SDS011;28312;43.460;11.810;2023-01-23T01:14:06;0.40;;;0.40;;
42134;SDS011;28312;43.460;11.810;2023-01-23T01:18:13;0.37;;;0.37;;
42134;SDS011;28312;43.460;11.810;2023-01-23T01:22:17;0.85;;;0.52;;
42134;SDS011;28312;43.460;11.810;2023-01-23T01:26:22;0.43;;;0.38;;
42134;SDS011;28312;43.460;11.810;2023-01-23T01:30:26;0.43;;;0.30;;
42134;SDS011;28312;43.460;11.810;2023-01-23T01:34:30;0.40;;;0.40;;
42134;SDS011;28312;43.460;11.810;2023-01-23T01:38:34;0.30;;;0.30;;
42134;SDS011;28312;43.460;11.810;2023-01-23T01:42:38;0.40;;;0.40;;
42134;SDS011;28312;43.460;11.810;2023-01-23T01:46:44;0.57;;;0.50;;
42134;SDS011;28312;43.460;11.810;2023-01-23T01:50:47;0.40;;;0.40;;
42134;SDS011;28312;43.460;11.810;2023-01-23T01:54:53;0.35;;;0.35;;
42134;SDS011;28312;43.460;11.810;2023-01-23T01:59:02;0.32;;;0.32;;
42134;SDS011;28312;43.460;11.810;2023-01-23T02:03:05;0.28;;;0.28;;
42134;SDS011;28312;43.460;11.810;2023-01-23T02:07:12;0.65;;;0.30;;
42134;SDS011;28312;43.460;11.810;2023-01-23T02:11:24;0.55;;;0.40;;
42134;SDS011;28312;43.460;11.810;2023-01-23T02:15:27;0.40;;;0.40;;
42134;SDS011;28312;43.460;11.810;2023-01-23T02:24:11;0.28;;;0.28;;
42134;SDS011;28312;43.460;11.810;2023-01-23T02:28:16;0.73;;;0.47;;
42134;SDS011;28312;43.460;11.810;2023-01-23T02:32:21;0.28;;;0.28;;
42134;SDS011;28312;43.460;11.810;2023-01-23T02:36:29;0.32;;;0.32;;
42134;SDS011;28312;43.460;11.810;2023-01-23T02:40:37;0.32;;;0.32;;
42134;SDS011;28312;43.460;11.810;2023-01-23T02:44:45;0.40;;;0.40;;
42134;SDS011;28312;43.460;11.810;2023-01-23T02:48:52;0.30;;;0.30;;
42134;SDS011;28312;43.460;11.810;2023-01-23T02:52:59;0.70;;;0.43;;
42134;SDS011;28312;43.460;11.810;2023-01-23T02:57:03;0.40;;;0.40;;
42134;SDS011;28312;43.460;11.810;2023-01-23T03:01:07;0.52;;;0.40;;
42134;SDS011;28312;43.460;11.810;2023-01-23T03:05:13;0.30;;;0.30;;
42134;SDS011;28312;43.460;11.810;2023-01-23T03:09:17;0.50;;;0.50;;
42134;SDS011;28312;43.460;11.810;2023-01-23T03:13:20;0.40;;;0.40;;
42134;SDS011;28312;43.460;11.810;2023-01-23T03:17:24;0.43;;;0.40;;
42134;SDS011;28312;43.460;11.810;2023-01-23T03:21:27;0.40;;;0.40;;
42134;SDS011;28312;43.460;11.810;2023-01-23T03:25:31;0.30;;;0.30;;
42134;SDS011;28312;43.460;11.810;2023-01-23T03:29:34;0.40;;;0.40;;
42134;SDS011;28312;43.460;11.810;2023-01-23T03:33:56;0.50;;;0.50;;
42134;SDS011;28312;43.460;11.810;2023-01-23T03:38:02;0.80;;;0.50;;
42134;SDS011;28312;43.460;11.810;2023-01-23T03:42:05;1.00;;;0.40;;
42134;SDS011;28312;43.460;11.810;2023-01-23T03:46:09;0.30;;;0.30;;
42134;SDS011;28312;43.460;11.810;2023-01-23T03:50:13;0.35;;;0.35;;
42134;SDS011;28312;43.460;11.810;2023-01-23T03:54:18;0.30;;;0.30;;
42134;SDS011;28312;43.460;11.810;2023-01-23T03:58:22;0.30;;;0.30;;
42134;SDS011;28312;43.460;11.810;2023-01-23T04:02:25;0.40;;;0.40;;
42134;SDS011;28312;43.460;11.810;2023-01-23T04:06:30;0.30;;;0.30;;
42134;SDS011;28312;43.460;11.810;2023-01-23T04:10:33;0.40;;;0.40;;
42134;SDS011;28312;43.460;11.810;2023-01-23T04:14:44;0.30;;;0.30;;
42134;SDS011;28312;43.460;11.810;2023-01-23T04:18:49;0.30;;;0.30;;
42134;SDS011;28312;43.460;11.810;2023-01-23T04:22:53;0.20;;;0.20;;
42134;SDS011;28312;43.460;11.810;2023-01-23T04:26:58;0.50;;;0.32;;
42134;SDS011;28312;43.460;11.810;2023-01-23T04:31:04;0.40;;;0.40;;
42134;SDS011;28312;43.460;11.810;2023-01-23T04:35:08;0.20;;;0.20;;
42134;SDS011;28312;43.460;11.810;2023-01-23T04:39:15;0.20;;;0.20;;
42134;SDS011;28312;43.460;11.810;2023-01-23T04:43:21;0.30;;;0.30;;
42134;SDS011;28312;43.460;11.810;2023-01-23T04:47:26;0.30;;;0.30;;
42134;SDS011;28312;43.460;11.810;2023-01-23T04:51:30;0.30;;;0.30;;
42134;SDS011;28312;43.460;11.810;2023-01-23T04:55:34;0.22;;;0.22;;
42134;SDS011;28312;43.460;11.810;2023-01-23T04:59:40;0.30;;;0.30;;
42134;SDS011;28312;43.460;11.810;2023-01-23T05:03:44;0.40;;;0.40;;
42134;SDS011;28312;43.460;11.810;2023-01-23T05:07:48;0.30;;;0.30;;
42134;SDS011;28312;43.460;11.810;2023-01-23T05:11:52;0.30;;;0.30;;
42134;SDS011;28312;43.460;11.810;2023-01-23T05:15:58;0.40;;;0.40;;
42134;SDS011;28312;43.460;11.810;2023-01-23T05:20:05;0.40;;;0.32;;
42134;SDS011;28312;43.460;11.810;2023-01-23T05:24:12;0.30;;;0.30;;
42134;SDS011;28312;43.460;11.810;2023-01-23T05:28:16;0.30;;;0.30;;
42134;SDS011;28312;43.460;11.810;2023-01-23T05:32:24;0.90;;;0.52;;
42134;SDS011;28312;43.460;11.810;2023-01-23T05:36:32;0.40;;;0.40;;
42134;SDS011;28312;43.460;11.810;2023-01-23T05:40:35;0.63;;;0.45;;
42134;SDS011;28312;43.460;11.810;2023-01-23T05:44:58;0.52;;;0.50;;
42134;SDS011;28312;43.460;11.810;2023-01-23T05:49:08;0.82;;;0.52;;
42134;SDS011;28312;43.460;11.810;2023-01-23T05:53:12;0.65;;;0.50;;
42134;SDS011;28312;43.460;11.810;2023-01-23T05:57:16;0.65;;;0.43;;
42134;SDS011;28312;43.460;11.810;2023-01-23T06:01:38;0.80;;;0.50;;
42134;SDS011;28312;43.460;11.810;2023-01-23T06:06:14;0.45;;;0.40;;
42134;SDS011;28312;43.460;11.810;2023-01-23T06:10:17;0.40;;;0.40;;
42134;SDS011;28312;43.460;11.810;2023-01-23T06:14:21;0.60;;;0.40;;
42134;SDS011;28312;43.460;11.810;2023-01-23T06:18:24;0.77;;;0.50;;
42134;SDS011;28312;43.460;11.810;2023-01-23T06:22:29;0.40;;;0.40;;
42134;SDS011;28312;43.460;11.810;2023-01-23T06:26:46;0.90;;;0.43;;
42134;SDS011;28312;43.460;11.810;2023-01-23T06:30:50;1.02;;;0.68;;
42134;SDS011;28312;43.460;11.810;2023-01-23T06:35:02;0.73;;;0.55;;
42134;SDS011;28312;43.460;11.810;2023-01-23T06:39:11;0.60;;;0.60;;
42134;SDS011;28312;43.460;11.810;2023-01-23T06:43:17;0.95;;;0.50;;
42134;SDS011;28312;43.460;11.810;2023-01-23T06:47:21;0.90;;;0.50;;
42134;SDS011;28312;43.460;11.810;2023-01-23T06:51:33;0.63;;;0.50;;
42134;SDS011;28312;43.460;11.810;2023-01-23T06:55:37;0.70;;;0.52;;
42134;SDS011;28312;43.460;11.810;2023-01-23T06:59:41;0.52;;;0.40;;
42134;SDS011;28312;43.460;11.810;2023-01-23T07:03:48;0.40;;;0.40;;
42134;SDS011;28312;43.460;11.810;2023-01-23T07:07:54;0.75;;;0.60;;
42134;SDS011;28312;43.460;11.810;2023-01-23T07:11:58;0.70;;;0.43;;
42134;SDS011;28312;43.460;11.810;2023-01-23T07:16:04;0.67;;;0.50;;
42134;SDS011;28312;43.460;11.810;2023-01-23T07:20:09;1.27;;;0.73;;
42134;SDS011;28312;43.460;11.810;2023-01-23T07:24:19;0.30;;;0.30;;
42134;SDS011;28312;43.460;11.810;2023-01-23T07:28:22;0.95;;;0.63;;
42134;SDS011;28312;43.460;11.810;2023-01-23T07:32:26;0.50;;;0.40;;
42134;SDS011;28312;43.460;11.810;2023-01-23T07:36:29;0.73;;;0.50;;
42134;SDS011;28312;43.460;11.810;2023-01-23T07:40:33;0.40;;;0.40;;
42134;SDS011;28312;43.460;11.810;2023-01-23T07:44:36;0.70;;;0.50;;
42134;SDS011;28312;43.460;11.810;2023-01-23T07:48:39;0.43;;;0.43;;
42134;SDS011;28312;43.460;11.810;2023-01-23T07:52:42;0.93;;;0.68;;
42134;SDS011;28312;43.460;11.810;2023-01-23T07:56:49;0.90;;;0.60;;
42134;SDS011;28312;43.460;11.810;2023-01-23T08:00:53;0.80;;;0.70;;
42134;SDS011;28312;43.460;11.810;2023-01-23T08:04:56;0.60;;;0.50;;
42134;SDS011;28312;43.460;11.810;2023-01-23T08:09:00;0.85;;;0.50;;
42134;SDS011;28312;43.460;11.810;2023-01-23T08:13:03;0.40;;;0.40;;
42134;SDS011;28312;43.460;11.810;2023-01-23T08:17:07;0.77;;;0.50;;
42134;SDS011;28312;43.460;11.810;2023-01-23T08:21:10;1.30;;;0.60;;
42134;SDS011;28312;43.460;11.810;2023-01-23T08:25:14;1.02;;;0.60;;
42134;SDS011;28312;43.460;11.810;2023-01-23T08:29:18;0.50;;;0.50;;
42134;SDS011;28312;43.460;11.810;2023-01-23T08:33:22;0.73;;;0.60;;
42134;SDS011;28312;43.460;11.810;2023-01-23T08:37:25;0.55;;;0.50;;
42134;SDS011;28312;43.460;11.810;2023-01-23T08:41:29;0.57;;;0.50;;
42134;SDS011;28312;43.460;11.810;2023-01-23T08:45:32;0.63;;;0.50;;
42134;SDS011;28312;43.460;11.810;2023-01-23T08:49:36;0.65;;;0.60;;
42134;SDS011;28312;43.460;11.810;2023-01-23T08:53:39;0.80;;;0.45;;
42134;SDS011;28312;43.460;11.810;2023-01-23T08:57:44;0.82;;;0.60;;
42134;SDS011;28312;43.460;11.810;2023-01-23T09:01:47;0.60;;;0.50;;
42134;SDS011;28312;43.460;11.810;2023-01-23T09:05:50;2.10;;;0.68;;
42134;SDS011;28312;43.460;11.810;2023-01-23T09:09:54;0.55;;;0.55;;
42134;SDS011;28312;43.460;11.810;2023-01-23T09:13:57;1.38;;;0.75;;
42134;SDS011;28312;43.460;11.810;2023-01-23T09:18:01;1.27;;;0.73;;
42134;SDS011;28312;43.460;11.810;2023-01-23T09:22:05;0.63;;;0.60;;
42134;SDS011;28312;43.460;11.810;2023-01-23T09:26:09;1.95;;;0.60;;
42134;SDS011;28312;43.460;11.810;2023-01-23T09:30:14;0.95;;;0.60;;
42134;SDS011;28312;43.460;11.810;2023-01-23T09:34:17;0.70;;;0.50;;
42134;SDS011;28312;43.460;11.810;2023-01-23T09:38:21;0.47;;;0.40;;
42134;SDS011;28312;43.460;11.810;2023-01-23T09:42:31;0.82;;;0.50;;
42134;SDS011;28312;43.460;11.810;2023-01-23T09:46:38;0.55;;;0.50;;
42134;SDS011;28312;43.460;11.810;2023-01-23T09:51:06;0.68;;;0.55;;
42134;SDS011;28312;43.460;11.810;2023-01-23T09:55:43;0.60;;;0.40;;
42134;SDS011;28312;43.460;11.810;2023-01-23T09:59:51;0.40;;;0.40;;
42134;SDS011;28312;43.460;11.810;2023-01-23T10:04:05;2.35;;;0.50;;
42134;SDS011;28312;43.460;11.810;2023-01-23T10:08:17;0.47;;;0.40;;
42134;SDS011;28312;43.460;11.810;2023-01-23T10:13:18;0.60;;;0.40;;
42134;SDS011;28312;43.460;11.810;2023-01-23T10:17:38;0.60;;;0.55;;
42134;SDS011;28312;43.460;11.810;2023-01-23T10:26:35;0.40;;;0.40;;
42134;SDS011;28312;43.460;11.810;2023-01-23T10:30:45;0.40;;;0.40;;
42134;SDS011;28312;43.460;11.810;2023-01-23T10:35:02;0.50;;;0.50;;
42134;SDS011;28312;43.460;11.810;2023-01-23T10:39:16;0.60;;;0.60;;
42134;SDS011;28312;43.460;11.810;2023-01-23T10:43:26;0.50;;;0.50;;
42134;SDS011;28312;43.460;11.810;2023-01-23T10:47:33;0.70;;;0.60;;
42134;SDS011;28312;43.460;11.810;2023-01-23T10:51:46;0.93;;;0.60;;
42134;SDS011;28312;43.460;11.810;2023-01-23T10:55:49;1.23;;;0.65;;
42134;SDS011;28312;43.460;11.810;2023-01-23T11:00:06;0.70;;;0.60;;
42134;SDS011;28312;43.460;11.810;2023-01-23T11:04:38;1.08;;;0.65;;
42134;SDS011;28312;43.460;11.810;2023-01-23T11:08:54;1.20;;;0.70;;
42134;SDS011;28312;43.460;11.810;2023-01-23T11:12:59;0.50;;;0.40;;
42134;SDS011;28312;43.460;11.810;2023-01-23T11:17:21;0.50;;;0.50;;
42134;SDS011;28312;43.460;11.810;2023-01-23T11:21:34;0.40;;;0.40;;
42134;SDS011;28312;43.460;11.810;2023-01-23T11:25:49;0.50;;;0.50;;
42134;SDS011;28312;43.460;11.810;2023-01-23T11:30:02;4.00;;;2.42;;
42134;SDS011;28312;43.460;11.810;2023-01-23T11:34:37;1.90;;;0.98;;
42134;SDS011;28312;43.460;11.810;2023-01-23T11:38:48;2.15;;;1.00;;
42134;SDS011;28312;43.460;11.810;2023-01-23T11:42:55;1.88;;;1.13;;
42134;SDS011;28312;43.460;11.810;2023-01-23T11:47:03;4.97;;;4.25;;
42134;SDS011;28312;43.460;11.810;2023-01-23T11:51:31;2.63;;;1.10;;
42134;SDS011;28312;43.460;11.810;2023-01-23T11:55:58;2.88;;;2.00;;
42134;SDS011;28312;43.460;11.810;2023-01-23T12:04:34;3.03;;;1.83;;
42134;SDS011;28312;43.460;11.810;2023-01-23T12:13:16;3.47;;;2.42;;
42134;SDS011;28312;43.460;11.810;2023-01-23T12:22:43;2.93;;;1.53;;
42134;SDS011;28312;43.460;11.810;2023-01-23T12:27:09;3.13;;;2.28;;
42134;SDS011;28312;43.460;11.810;2023-01-23T12:31:30;2.50;;;1.60;;
42134;SDS011;28312;43.460;11.810;2023-01-23T12:35:55;2.15;;;1.33;;
42134;SDS011;28312;43.460;11.810;2023-01-23T12:40:27;1.83;;;1.23;;
42134;SDS011;28312;43.460;11.810;2023-01-23T12:44:48;2.40;;;1.40;;
42134;SDS011;28312;43.460;11.810;2023-01-23T12:57:19;1.90;;;1.30;;
42134;SDS011;28312;43.460;11.810;2023-01-23T13:02:19;1.85;;;1.20;;
42134;SDS011;28312;43.460;11.810;2023-01-23T13:06:54;2.13;;;1.20;;
42134;SDS011;28312;43.460;11.810;2023-01-23T13:11:15;1.10;;;0.85;;
42134;SDS011;28312;43.460;11.810;2023-01-23T13:15:42;2.80;;;1.95;;
42134;SDS011;28312;43.460;11.810;2023-01-23T13:19:47;2.65;;;2.35;;
42134;SDS011;28312;43.460;11.810;2023-01-23T13:24:23;2.03;;;1.30;;
42134;SDS011;28312;43.460;11.810;2023-01-23T13:28:58;2.05;;;1.30;;
42134;SDS011;28312;43.460;11.810;2023-01-23T13:42:31;2.08;;;1.52;;
42134;SDS011;28312;43.460;11.810;2023-01-23T13:51:31;2.83;;;2.13;;
42134;SDS011;28312;43.460;11.810;2023-01-23T13:55:41;2.45;;;1.45;;
42134;SDS011;28312;43.460;11.810;2023-01-23T14:00:19;2.50;;;1.38;;
42134;SDS011;28312;43.460;11.810;2023-01-23T14:04:40;1.88;;;1.08;;
42134;SDS011;28312;43.460;11.810;2023-01-23T14:09:20;1.85;;;1.10;;
42134;SDS011;28312;43.460;11.810;2023-01-23T14:13:45;2.40;;;1.52;;
42134;SDS011;28312;43.460;11.810;2023-01-23T14:18:03;2.25;;;1.30;;
42134;SDS011;28312;43.460;11.810;2023-01-23T14:22:29;4.00;;;2.00;;
42134;SDS011;28312;43.460;11.810;2023-01-23T14:26:34;2.28;;;1.30;;
42134;SDS011;28312;43.460;11.810;2023-01-23T14:30:38;1.88;;;1.08;;
42134;SDS011;28312;43.460;11.810;2023-01-23T14:34:41;1.25;;;0.75;;
42134;SDS011;28312;43.460;11.810;2023-01-23T14:38:44;3.78;;;1.90;;
42134;SDS011;28312;43.460;11.810;2023-01-23T14:43:00;2.30;;;1.50;;
42134;SDS011;28312;43.460;11.810;2023-01-23T14:47:09;2.58;;;1.55;;
42134;SDS011;28312;43.460;11.810;2023-01-23T14:51:22;1.98;;;1.15;;
42134;SDS011;28312;43.460;11.810;2023-01-23T14:55:27;2.50;;;1.13;;
42134;SDS011;28312;43.460;11.810;2023-01-23T14:59:35;6.53;;;3.38;;
42134;SDS011;28312;43.460;11.810;2023-01-23T15:03:41;4.35;;;2.47;;
42134;SDS011;28312;43.460;11.810;2023-01-23T15:12:16;2.50;;;1.50;;
42134;SDS011;28312;43.460;11.810;2023-01-23T15:16:23;5.45;;;2.50;;
42134;SDS011;28312;43.460;11.810;2023-01-23T15:20:34;4.32;;;2.35;;
42134;SDS011;28312;43.460;11.810;2023-01-23T15:24:45;6.43;;;4.00;;
42134;SDS011;28312;43.460;11.810;2023-01-23T15:28:53;3.28;;;2.45;;
42134;SDS011;28312;43.460;11.810;2023-01-23T15:32:59;3.72;;;1.30;;
42134;SDS011;28312;43.460;11.810;2023-01-23T15:41:14;2.05;;;1.25;;
42134;SDS011;28312;43.460;11.810;2023-01-23T15:45:28;2.50;;;1.30;;
42134;SDS011;28312;43.460;11.810;2023-01-23T15:49:32;2.20;;;1.08;;
42134;SDS011;28312;43.460;11.810;2023-01-23T15:53:37;2.85;;;1.75;;
42134;SDS011;28312;43.460;11.810;2023-01-23T15:57:41;1.98;;;1.20;;
42134;SDS011;28312;43.460;11.810;2023-01-23T16:01:45;1.42;;;0.88;;
42134;SDS011;28312;43.460;11.810;2023-01-23T16:05:48;2.95;;;1.58;;
42134;SDS011;28312;43.460;11.810;2023-01-23T16:09:52;2.95;;;1.98;;
42134;SDS011;28312;43.460;11.810;2023-01-23T16:13:56;4.07;;;2.40;;
42134;SDS011;28312;43.460;11.810;2023-01-23T16:18:00;3.72;;;2.33;;
42134;SDS011;28312;43.460;11.810;2023-01-23T16:22:09;3.90;;;2.38;;
42134;SDS011;28312;43.460;11.810;2023-01-23T16:26:18;3.53;;;1.88;;
42134;SDS011;28312;43.460;11.810;2023-01-23T16:30:23;1.65;;;1.00;;
42134;SDS011;28312;43.460;11.810;2023-01-23T16:34:28;2.60;;;2.08;;
42134;SDS011;28312;43.460;11.810;2023-01-23T16:38:32;3.25;;;2.15;;
42134;SDS011;28312;43.460;11.810;2023-01-23T16:42:35;4.35;;;2.65;;
42134;SDS011;28312;43.460;11.810;2023-01-23T16:46:44;0.60;;;0.52;;
42134;SDS011;28312;43.460;11.810;2023-01-23T16:50:52;2.83;;;2.10;;
42134;SDS011;28312;43.460;11.810;2023-01-23T16:55:04;1.25;;;0.90;;
42134;SDS011;28312;43.460;11.810;2023-01-23T16:59:19;2.33;;;1.67;;
42134;SDS011;28312;43.460;11.810;2023-01-23T17:03:34;2.35;;;1.67;;
42134;SDS011;28312;43.460;11.810;2023-01-23T17:07:39;2.15;;;1.42;;
42134;SDS011;28312;43.460;11.810;2023-01-23T17:11:44;3.80;;;1.55;;
42134;SDS011;28312;43.460;11.810;2023-01-23T17:15:51;1.83;;;1.33;;
42134;SDS011;28312;43.460;11.810;2023-01-23T17:19:57;3.05;;;2.15;;
42134;SDS011;28312;43.460;11.810;2023-01-23T17:24:02;3.63;;;2.72;;
42134;SDS011;28312;43.460;11.810;2023-01-23T17:28:06;2.97;;;2.35;;
42134;SDS011;28312;43.460;11.810;2023-01-23T17:32:49;3.78;;;3.00;;
42134;SDS011;28312;43.460;11.810;2023-01-23T17:36:45;5.60;;;2.95;;
42134;SDS011;28312;43.460;11.810;2023-01-23T17:40:48;2.00;;;1.30;;
42134;SDS011;28312;43.460;11.810;2023-01-23T17:44:52;3.13;;;2.42;;
42134;SDS011;28312;43.460;11.810;2023-01-23T17:48:55;3.88;;;3.47;;
42134;SDS011;28312;43.460;11.810;2023-01-23T17:52:59;3.28;;;2.13;;
42134;SDS011;28312;43.460;11.810;2023-01-23T17:57:02;4.82;;;4.32;;
42134;SDS011;28312;43.460;11.810;2023-01-23T18:01:13;3.53;;;2.50;;
42134;SDS011;28312;43.460;11.810;2023-01-23T18:05:26;3.80;;;2.85;;
42134;SDS011;28312;43.460;11.810;2023-01-23T18:09:31;4.43;;;3.20;;
42134;SDS011;28312;43.460;11.810;2023-01-23T18:22:18;3.58;;;3.17;;
42134;SDS011;28312;43.460;11.810;2023-01-23T18:26:41;4.38;;;3.33;;
42134;SDS011;28312;43.460;11.810;2023-01-23T18:30:54;7.10;;;5.82;;
42134;SDS011;28312;43.460;11.810;2023-01-23T18:40:03;4.93;;;4.13;;
42134;SDS011;28312;43.460;11.810;2023-01-23T18:44:19;4.13;;;3.40;;
42134;SDS011;28312;43.460;11.810;2023-01-23T18:48:26;3.67;;;2.10;;
42134;SDS011;28312;43.460;11.810;2023-01-23T18:53:21;3.80;;;3.30;;
42134;SDS011;28312;43.460;11.810;2023-01-23T19:01:53;3.80;;;1.60;;
42134;SDS011;28312;43.460;11.810;2023-01-23T19:06:00;3.33;;;2.22;;
42134;SDS011;28312;43.460;11.810;2023-01-23T19:10:06;4.38;;;3.17;;
42134;SDS011;28312;43.460;11.810;2023-01-23T19:19:34;2.35;;;1.58;;
42134;SDS011;28312;43.460;11.810;2023-01-23T19:23:35;3.67;;;3.00;;
42134;SDS011;28312;43.460;11.810;2023-01-23T19:27:45;2.55;;;1.85;;
42134;SDS011;28312;43.460;11.810;2023-01-23T19:31:54;2.67;;;1.80;;
42134;SDS011;28312;43.460;11.810;2023-01-23T19:36:06;3.05;;;2.20;;
42134;SDS011;28312;43.460;11.810;2023-01-23T19:40:13;1.77;;;1.10;;
42134;SDS011;28312;43.460;11.810;2023-01-23T19:44:18;2.63;;;1.60;;
42134;SDS011;28312;43.460;11.810;2023-01-23T19:48:23;2.72;;;1.80;;
42134;SDS011;28312;43.460;11.810;2023-01-23T19:52:27;1.83;;;1.20;;
42134;SDS011;28312;43.460;11.810;2023-01-23T19:56:31;2.95;;;2.13;;
42134;SDS011;28312;43.460;11.810;2023-01-23T20:00:34;3.35;;;2.72;;
42134;SDS011;28312;43.460;11.810;2023-01-23T20:04:40;2.42;;;1.63;;
42134;SDS011;28312;43.460;11.810;2023-01-23T20:08:43;3.28;;;1.90;;
42134;SDS011;28312;43.460;11.810;2023-01-23T20:12:48;2.03;;;1.40;;
42134;SDS011;28312;43.460;11.810;2023-01-23T20:16:58;3.60;;;2.90;;
42134;SDS011;28312;43.460;11.810;2023-01-23T20:21:01;3.42;;;2.75;;
42134;SDS011;28312;43.460;11.810;2023-01-23T20:25:08;4.30;;;3.20;;
42134;SDS011;28312;43.460;11.810;2023-01-23T20:29:13;3.83;;;3.03;;
42134;SDS011;28312;43.460;11.810;2023-01-23T20:33:17;3.78;;;2.70;;
42134;SDS011;28312;43.460;11.810;2023-01-23T20:37:20;3.08;;;2.75;;
42134;SDS011;28312;43.460;11.810;2023-01-23T20:41:23;3.30;;;2.50;;
42134;SDS011;28312;43.460;11.810;2023-01-23T20:45:27;3.40;;;2.50;;
42134;SDS011;28312;43.460;11.810;2023-01-23T20:49:30;5.22;;;2.97;;
42134;SDS011;28312;43.460;11.810;2023-01-23T20:53:34;6.65;;;3.13;;
42134;SDS011;28312;43.460;11.810;2023-01-23T20:57:40;6.82;;;3.60;;
42134;SDS011;28312;43.460;11.810;2023-01-23T21:02:01;1.90;;;1.50;;
42134;SDS011;28312;43.460;11.810;2023-01-23T21:06:23;3.25;;;1.90;;
42134;SDS011;28312;43.460;11.810;2023-01-23T21:10:27;5.38;;;3.17;;
42134;SDS011;28312;43.460;11.810;2023-01-23T21:14:30;4.55;;;3.22;;
42134;SDS011;28312;43.460;11.810;2023-01-23T21:18:34;3.65;;;2.60;;
42134;SDS011;28312;43.460;11.810;2023-01-23T21:22:44;4.75;;;2.72;;
42134;SDS011;28312;43.460;11.810;2023-01-23T21:26:48;4.95;;;2.50;;
42134;SDS011;28312;43.460;11.810;2023-01-23T21:30:51;3.65;;;2.70;;
42134;SDS011;28312;43.460;11.810;2023-01-23T21:34:55;4.57;;;3.55;;
42134;SDS011;28312;43.460;11.810;2023-01-23T21:38:58;3.47;;;2.45;;
42134;SDS011;28312;43.460;11.810;2023-01-23T21:43:02;3.75;;;2.92;;
42134;SDS011;28312;43.460;11.810;2023-01-23T21:47:05;2.53;;;1.92;;
42134;SDS011;28312;43.460;11.810;2023-01-23T21:51:09;5.65;;;4.00;;
42134;SDS011;28312;43.460;11.810;2023-01-23T21:55:15;6.22;;;4.82;;
42134;SDS011;28312;43.460;11.810;2023-01-23T21:59:20;2.90;;;2.20;;
42134;SDS011;28312;43.460;11.810;2023-01-23T22:03:23;4.03;;;3.25;;
42134;SDS011;28312;43.460;11.810;2023-01-23T22:07:27;5.40;;;4.07;;
42134;SDS011;28312;43.460;11.810;2023-01-23T22:11:30;3.72;;;2.92;;
42134;SDS011;28312;43.460;11.810;2023-01-23T22:15:33;5.57;;;4.22;;
42134;SDS011;28312;43.460;11.810;2023-01-23T22:19:37;15.60;;;12.30;;
42134;SDS011;28312;43.460;11.810;2023-01-23T22:23:41;4.68;;;3.50;;
42134;SDS011;28312;43.460;11.810;2023-01-23T22:27:44;5.03;;;3.72;;
42134;SDS011;28312;43.460;11.810;2023-01-23T22:31:49;15.70;;;10.32;;
42134;SDS011;28312;43.460;11.810;2023-01-23T22:35:53;8.57;;;5.70;;
42134;SDS011;28312;43.460;11.810;2023-01-23T22:39:57;16.70;;;11.18;;
42134;SDS011;28312;43.460;11.810;2023-01-23T22:44:01;8.18;;;6.43;;
42134;SDS011;28312;43.460;11.810;2023-01-23T22:48:04;8.88;;;6.57;;
42134;SDS011;28312;43.460;11.810;2023-01-23T22:52:08;4.90;;;3.83;;
42134;SDS011;28312;43.460;11.810;2023-01-23T22:56:11;4.65;;;4.15;;
42134;SDS011;28312;43.460;11.810;2023-01-23T23:00:15;12.43;;;10.70;;
42134;SDS011;28312;43.460;11.810;2023-01-23T23:04:20;6.95;;;5.40;;
42134;SDS011;28312;43.460;11.810;2023-01-23T23:08:26;7.80;;;4.90;;
42134;SDS011;28312;43.460;11.810;2023-01-23T23:12:30;5.68;;;4.80;;
42134;SDS011;28312;43.460;11.810;2023-01-23T23:16:41;6.35;;;5.05;;
42134;SDS011;28312;43.460;11.810;2023-01-23T23:20:44;4.82;;;3.95;;
42134;SDS011;28312;43.460;11.810;2023-01-23T23:24:49;4.97;;;3.78;;
42134;SDS011;28312;43.460;11.810;2023-01-23T23:28:54;5.05;;;4.15;;
42134;SDS011;28312;43.460;11.810;2023-01-23T23:32:57;6.28;;;4.20;;
42134;SDS011;28312;43.460;11.810;2023-01-23T23:37:01;4.70;;;3.67;;
42134;SDS011;28312;43.460;11.810;2023-01-23T23:41:06;5.90;;;5.30;;
42134;SDS011;28312;43.460;11.810;2023-01-23T23:45:13;5.05;;;4.03;;
42134;SDS011;28312;43.460;11.810;2023-01-23T23:49:16;5.20;;;2.95;;
42134;SDS011;28312;43.460;11.810;2023-01-23T23:53:20;5.25;;;4.07;;
42134;SDS011;28312;43.460;11.810;2023-01-23T23:57:24;6.43;;;4.75;;
